Aérodrome :
LOGIN :

S'inscrire | Disclaimer

   EN    FR    IT 

 










Légende :    VFR   VFR Marginal   IFR   IFR Intensif   IFR Très Intensif
Visi : 
Plafond : 
>= 8 km
>= 3000ft
5 à 8 km
1000 à 3000 ft
1500m à 5 km
500 à 1000 ft
800 à 1500m
200 à 500 ft
< 800m
< 200 ft
Symboles :   Orages  Brouillard  Fortes neiges  Fortes précipitations  Vent > 20 kt
SIGMETs :   Divers  Orages  Givrage  Turbulence  Onde Orograph.  Cendres Volcan.







- Altitude de l'aérodrome : 117 ft
- Code IATA : NWI
- Voir les cartes d'approche


EGSH - Norwich

DERNIER METAR :
  • 162150Z AUTO 22019KT 180V240 9999 NCD 14/09 Q1015

METARs EXPIRÉS :
  • 162120Z AUTO 22020G30KT 9999 NCD 14/09 Q1015
  • 162050Z AUTO 22018KT 9999 NCD 14/09 Q1015
  • 162020Z 21018G29KT CAVOK 15/09 Q1015
  • 161950Z 22018KT 180V250 CAVOK 15/10 Q1014 NOSIG
  • 161920Z 21021G32KT CAVOK 16/10 Q1014 NOSIG

TAF TAF EGSH
Valide du 16 à 21h jusqu'au 17 à 00h UTC


162001Z 1621/1624 21018G28KT 9999 FEW020
PROB30
TEMPO 1621/1624 9000
ATIS : +44 1603 420 640
Pas de NOTAMs connus pour ce terrain.
2 SIGMETs publiés pour la FIR London (EGTT) :
 
Onde orographique forte
EGTT SIGMET 09 VALID 162100/170100 EGRR
EGTT LONDON FIR SEV MTW FCST N OF LINE N4941 W00800 - N5059 E00128 FL030/200 STNR NC=
Turbulence forte
EGTT SIGMET 08 VALID 161900/162300 EGRR
EGTT LONDON FIR SEV TURB FCST WI N5100 W00800 - N5220 W00530 - N5500 W00530 - N5500 W00100 - N5500 E00228 - N5017 W00032 - N4919 W00800 - N5100 W00800 SFC/FL060 MOV NNE 15KT NC=



MET'MAP, la Météo Aéronautique d'un coup d'oeil ! - Copyright ORBIFLY Décembre 2007 - Disclaimer

ORBIFLY MET'MAP TEAM :

Programmation & Développement : Alexandra Zaïnal
Conception & Développement : Baudouin d'Aumeries
Co-Programmation & Développement : Marc-Olivier Méhu
Soutien technique & logistique : Manuel Goepfert

Contact : metmap@orbifly.com




SOURCES & CREDITS :

   NOAA